sensor_id;sensor_type;location;lat;lon;timestamp;pressure;altitude;pressure_sealevel;temperature;humidity
8294;BME280;4185;41.506;24.938;2022-10-04T00:01:06;93561.81;;;8.11;74.68
8294;BME280;4185;41.506;24.938;2022-10-04T00:03:39;93565.16;;;8.06;74.65
8294;BME280;4185;41.506;24.938;2022-10-04T00:06:13;93565.44;;;8.08;74.53
8294;BME280;4185;41.506;24.938;2022-10-04T00:08:45;93562.19;;;8.04;74.39
8294;BME280;4185;41.506;24.938;2022-10-04T00:11:19;93579.91;;;8.05;75.07
8294;BME280;4185;41.506;24.938;2022-10-04T00:13:52;93571.41;;;8.12;75.19
8294;BME280;4185;41.506;24.938;2022-10-04T00:16:25;93567.22;;;8.11;74.99
8294;BME280;4185;41.506;24.938;2022-10-04T00:19:21;93572.06;;;8.07;74.70
8294;BME280;4185;41.506;24.938;2022-10-04T00:22:08;93572.53;;;8.05;74.58
8294;BME280;4185;41.506;24.938;2022-10-04T00:28:14;93560.44;;;7.86;74.84
8294;BME280;4185;41.506;24.938;2022-10-04T00:30:41;93554.63;;;7.79;74.38
8294;BME280;4185;41.506;24.938;2022-10-04T00:33:08;93568.97;;;7.70;74.05
8294;BME280;4185;41.506;24.938;2022-10-04T00:35:46;93566.47;;;7.67;74.50
8294;BME280;4185;41.506;24.938;2022-10-04T00:38:15;93568.22;;;7.70;74.54
8294;BME280;4185;41.506;24.938;2022-10-04T00:40:49;93561.44;;;7.74;74.24
8294;BME280;4185;41.506;24.938;2022-10-04T00:43:22;93572.81;;;7.78;73.57
8294;BME280;4185;41.506;24.938;2022-10-04T00:45:53;93564.50;;;7.82;73.56
8294;BME280;4185;41.506;24.938;2022-10-04T00:48:29;93547.63;;;7.72;74.36
8294;BME280;4185;41.506;24.938;2022-10-04T00:51:03;93553.22;;;7.69;74.58
8294;BME280;4185;41.506;24.938;2022-10-04T00:53:41;93544.66;;;7.70;74.78
8294;BME280;4185;41.506;24.938;2022-10-04T00:56:15;93550.59;;;7.60;75.01
8294;BME280;4185;41.506;24.938;2022-10-04T00:58:59;93550.41;;;7.49;75.20
8294;BME280;4185;41.506;24.938;2022-10-04T01:01:30;93546.13;;;7.42;75.23
8294;BME280;4185;41.506;24.938;2022-10-04T01:04:04;93550.94;;;7.38;75.28
8294;BME280;4185;41.506;24.938;2022-10-04T01:06:35;93547.13;;;7.44;75.55
8294;BME280;4185;41.506;24.938;2022-10-04T01:09:06;93541.44;;;7.42;74.60
8294;BME280;4185;41.506;24.938;2022-10-04T01:11:37;93544.44;;;7.44;74.80
8294;BME280;4185;41.506;24.938;2022-10-04T01:14:10;93542.75;;;7.32;75.98
8294;BME280;4185;41.506;24.938;2022-10-04T01:16:40;93545.19;;;7.30;75.51
8294;BME280;4185;41.506;24.938;2022-10-04T01:19:28;93544.03;;;7.22;75.93
8294;BME280;4185;41.506;24.938;2022-10-04T01:22:01;93545.38;;;7.03;75.57
8294;BME280;4185;41.506;24.938;2022-10-04T01:24:35;93546.53;;;6.88;76.00
8294;BME280;4185;41.506;24.938;2022-10-04T01:27:02;93554.13;;;6.98;75.89
8294;BME280;4185;41.506;24.938;2022-10-04T01:29:30;93551.97;;;7.02;76.25
8294;BME280;4185;41.506;24.938;2022-10-04T01:31:58;93560.09;;;7.02;76.67
8294;BME280;4185;41.506;24.938;2022-10-04T01:34:27;93557.56;;;6.99;76.54
8294;BME280;4185;41.506;24.938;2022-10-04T01:36:57;93557.72;;;6.95;76.52
8294;BME280;4185;41.506;24.938;2022-10-04T01:39:26;93555.50;;;6.94;76.84
8294;BME280;4185;41.506;24.938;2022-10-04T01:41:59;93562.22;;;6.98;76.70
8294;BME280;4185;41.506;24.938;2022-10-04T01:44:31;93560.16;;;6.93;76.77
8294;BME280;4185;41.506;24.938;2022-10-04T01:47:04;93553.59;;;6.85;76.71
8294;BME280;4185;41.506;24.938;2022-10-04T01:49:33;93551.53;;;6.80;77.14
8294;BME280;4185;41.506;24.938;2022-10-04T01:52:06;93563.41;;;6.74;76.85
8294;BME280;4185;41.506;24.938;2022-10-04T01:54:37;93563.75;;;6.67;77.04
8294;BME280;4185;41.506;24.938;2022-10-04T01:57:12;93559.13;;;6.67;76.92
8294;BME280;4185;41.506;24.938;2022-10-04T01:59:43;93558.84;;;6.56;77.18
8294;BME280;4185;41.506;24.938;2022-10-04T02:02:20;93569.66;;;6.56;76.24
8294;BME280;4185;41.506;24.938;2022-10-04T02:04:52;93564.09;;;6.60;77.14
8294;BME280;4185;41.506;24.938;2022-10-04T02:07:20;93572.31;;;6.65;76.25
8294;BME280;4185;41.506;24.938;2022-10-04T02:09:49;93563.75;;;6.67;76.42
8294;BME280;4185;41.506;24.938;2022-10-04T02:12:21;93567.84;;;6.62;77.18
8294;BME280;4185;41.506;24.938;2022-10-04T02:14:50;93569.91;;;6.67;76.11
8294;BME280;4185;41.506;24.938;2022-10-04T02:17:19;93571.69;;;6.70;76.88
8294;BME280;4185;41.506;24.938;2022-10-04T02:19:48;93560.97;;;6.61;77.04
8294;BME280;4185;41.506;24.938;2022-10-04T02:22:15;93563.59;;;6.70;76.02
8294;BME280;4185;41.506;24.938;2022-10-04T02:24:45;93568.13;;;6.64;76.71
8294;BME280;4185;41.506;24.938;2022-10-04T02:27:14;93573.28;;;6.53;77.44
8294;BME280;4185;41.506;24.938;2022-10-04T02:29:42;93574.22;;;6.41;77.31
8294;BME280;4185;41.506;24.938;2022-10-04T02:32:09;93571.00;;;6.28;77.16
8294;BME280;4185;41.506;24.938;2022-10-04T02:34:54;93571.63;;;6.14;77.61
8294;BME280;4185;41.506;24.938;2022-10-04T02:37:22;93564.13;;;6.18;77.72
8294;BME280;4185;41.506;24.938;2022-10-04T02:39:53;93572.50;;;6.29;76.72
8294;BME280;4185;41.506;24.938;2022-10-04T02:42:31;93582.38;;;6.32;76.57
8294;BME280;4185;41.506;24.938;2022-10-04T02:45:11;93575.59;;;6.37;75.70
8294;BME280;4185;41.506;24.938;2022-10-04T02:47:43;93582.84;;;6.22;77.49
8294;BME280;4185;41.506;24.938;2022-10-04T02:50:25;93583.78;;;6.18;77.68
8294;BME280;4185;41.506;24.938;2022-10-04T02:52:57;93583.03;;;6.18;77.88
8294;BME280;4185;41.506;24.938;2022-10-04T02:55:28;93590.25;;;6.12;76.83
8294;BME280;4185;41.506;24.938;2022-10-04T02:57:57;93585.03;;;5.90;77.86
8294;BME280;4185;41.506;24.938;2022-10-04T03:00:28;93590.91;;;5.71;78.46
8294;BME280;4185;41.506;24.938;2022-10-04T03:03:12;93589.41;;;5.61;79.92
8294;BME280;4185;41.506;24.938;2022-10-04T03:05:42;93594.22;;;5.57;79.43
8294;BME280;4185;41.506;24.938;2022-10-04T03:08:10;93585.66;;;5.58;79.66
8294;BME280;4185;41.506;24.938;2022-10-04T03:10:38;93592.72;;;5.65;79.27
8294;BME280;4185;41.506;24.938;2022-10-04T03:13:07;93583.72;;;5.68;78.98
8294;BME280;4185;41.506;24.938;2022-10-04T03:15:36;93588.34;;;5.67;78.70
8294;BME280;4185;41.506;24.938;2022-10-04T03:18:04;93596.91;;;5.66;78.34
8294;BME280;4185;41.506;24.938;2022-10-04T03:20:35;93594.50;;;5.68;79.09
8294;BME280;4185;41.506;24.938;2022-10-04T03:23:03;93593.00;;;5.67;78.85
8294;BME280;4185;41.506;24.938;2022-10-04T03:25:48;93588.50;;;5.64;79.29
8294;BME280;4185;41.506;24.938;2022-10-04T03:28:16;93598.53;;;5.63;79.37
8294;BME280;4185;41.506;24.938;2022-10-04T03:30:45;93593.91;;;5.64;78.79
8294;BME280;4185;41.506;24.938;2022-10-04T03:33:19;93599.13;;;5.67;78.99
8294;BME280;4185;41.506;24.938;2022-10-04T03:35:49;93588.22;;;5.71;79.01
8294;BME280;4185;41.506;24.938;2022-10-04T03:38:18;93595.09;;;5.72;78.30
8294;BME280;4185;41.506;24.938;2022-10-04T03:40:49;93590.28;;;5.76;78.59
8294;BME280;4185;41.506;24.938;2022-10-04T03:43:22;93589.09;;;5.77;78.39
8294;BME280;4185;41.506;24.938;2022-10-04T03:45:52;93598.84;;;5.74;78.55
8294;BME280;4185;41.506;24.938;2022-10-04T03:48:29;93593.91;;;5.64;78.17
8294;BME280;4185;41.506;24.938;2022-10-04T03:50:57;93587.94;;;5.51;78.57
8294;BME280;4185;41.506;24.938;2022-10-04T03:53:30;93584.34;;;5.36;79.19
8294;BME280;4185;41.506;24.938;2022-10-04T03:56:01;93583.44;;;5.30;79.65
8294;BME280;4185;41.506;24.938;2022-10-04T03:58:29;93593.34;;;5.33;79.62
8294;BME280;4185;41.506;24.938;2022-10-04T04:01:11;93599.28;;;5.28;79.49
8294;BME280;4185;41.506;24.938;2022-10-04T04:03:53;93600.19;;;5.25;78.95
8294;BME280;4185;41.506;24.938;2022-10-04T04:06:23;93600.50;;;5.27;79.30
8294;BME280;4185;41.506;24.938;2022-10-04T04:08:52;93611.72;;;5.25;79.08
8294;BME280;4185;41.506;24.938;2022-10-04T04:11:22;93607.09;;;5.26;79.70
8294;BME280;4185;41.506;24.938;2022-10-04T04:13:57;93608.16;;;5.37;79.11
8294;BME280;4185;41.506;24.938;2022-10-04T04:16:29;93609.94;;;5.40;79.24
8294;BME280;4185;41.506;24.938;2022-10-04T04:19:00;93617.41;;;5.36;79.86
8294;BME280;4185;41.506;24.938;2022-10-04T04:21:28;93615.75;;;5.30;78.79
8294;BME280;4185;41.506;24.938;2022-10-04T04:23:58;93614.88;;;5.24;79.06
8294;BME280;4185;41.506;24.938;2022-10-04T04:26:33;93622.03;;;5.27;79.56
8294;BME280;4185;41.506;24.938;2022-10-04T04:29:06;93628.34;;;5.33;78.74
8294;BME280;4185;41.506;24.938;2022-10-04T04:31:40;93636.44;;;5.33;79.25
8294;BME280;4185;41.506;24.938;2022-10-04T04:34:18;93629.53;;;5.32;78.74
8294;BME280;4185;41.506;24.938;2022-10-04T04:36:45;93635.81;;;5.29;79.40
8294;BME280;4185;41.506;24.938;2022-10-04T04:39:17;93631.94;;;5.21;79.41
8294;BME280;4185;41.506;24.938;2022-10-04T04:42:05;93640.59;;;5.16;79.88
8294;BME280;4185;41.506;24.938;2022-10-04T04:44:33;93646.84;;;5.13;79.07
8294;BME280;4185;41.506;24.938;2022-10-04T04:47:05;93641.94;;;5.20;79.31
8294;BME280;4185;41.506;24.938;2022-10-04T04:49:36;93647.78;;;5.28;78.84
8294;BME280;4185;41.506;24.938;2022-10-04T04:52:04;93650.16;;;5.35;78.95
8294;BME280;4185;41.506;24.938;2022-10-04T04:54:32;93649.72;;;5.36;78.73
8294;BME280;4185;41.506;24.938;2022-10-04T04:56:59;93653.47;;;5.39;78.27
8294;BME280;4185;41.506;24.938;2022-10-04T04:59:26;93661.88;;;5.41;78.11
8294;BME280;4185;41.506;24.938;2022-10-04T05:01:53;93663.50;;;5.38;78.13
8294;BME280;4185;41.506;24.938;2022-10-04T05:04:22;93672.94;;;5.43;78.32
8294;BME280;4185;41.506;24.938;2022-10-04T05:07:02;93665.16;;;5.54;78.62
8294;BME280;4185;41.506;24.938;2022-10-04T05:09:31;93666.94;;;5.57;78.12
8294;BME280;4185;41.506;24.938;2022-10-04T05:12:03;93667.25;;;5.59;77.68
8294;BME280;4185;41.506;24.938;2022-10-04T05:14:34;93668.16;;;5.56;77.39
8294;BME280;4185;41.506;24.938;2022-10-04T05:17:04;93678.94;;;5.65;77.39
8294;BME280;4185;41.506;24.938;2022-10-04T05:19:34;93668.00;;;5.77;77.11
8294;BME280;4185;41.506;24.938;2022-10-04T05:22:07;93678.34;;;5.88;76.99
8294;BME280;4185;41.506;24.938;2022-10-04T05:24:37;93674.28;;;6.01;76.74
8294;BME280;4185;41.506;24.938;2022-10-04T05:27:08;93687.03;;;6.10;75.91
8294;BME280;4185;41.506;24.938;2022-10-04T05:29:59;93686.41;;;6.15;76.16
8294;BME280;4185;41.506;24.938;2022-10-04T05:32:34;93694.34;;;6.09;76.55
8294;BME280;4185;41.506;24.938;2022-10-04T05:35:14;93691.50;;;6.13;75.80
8294;BME280;4185;41.506;24.938;2022-10-04T05:37:53;93702.84;;;6.26;75.64
8294;BME280;4185;41.506;24.938;2022-10-04T05:40:28;93695.06;;;6.37;75.55
8294;BME280;4185;41.506;24.938;2022-10-04T05:42:57;93706.25;;;6.45;75.77
8294;BME280;4185;41.506;24.938;2022-10-04T05:45:26;93696.94;;;6.55;76.05
8294;BME280;4185;41.506;24.938;2022-10-04T05:47:54;93696.16;;;6.63;75.77
8294;BME280;4185;41.506;24.938;2022-10-04T05:50:28;93673.56;;;6.52;75.17
8294;BME280;4185;41.506;24.938;2022-10-04T05:53:20;93693.28;;;6.76;75.51
8294;BME280;4185;41.506;24.938;2022-10-04T05:55:55;93703.47;;;6.81;75.54
8294;BME280;4185;41.506;24.938;2022-10-04T05:58:38;93706.28;;;6.86;75.68
8294;BME280;4185;41.506;24.938;2022-10-04T06:01:32;93707.16;;;6.92;75.63
8294;BME280;4185;41.506;24.938;2022-10-04T06:04:30;93709.38;;;7.03;74.89
8294;BME280;4185;41.506;24.938;2022-10-04T06:07:03;93701.03;;;7.15;74.97
8294;BME280;4185;41.506;24.938;2022-10-04T06:09:50;93697.38;;;7.27;75.33
8294;BME280;4185;41.506;24.938;2022-10-04T06:12:30;93700.94;;;7.33;75.48
8294;BME280;4185;41.506;24.938;2022-10-04T06:15:14;93693.53;;;7.43;74.38
8294;BME280;4185;41.506;24.938;2022-10-04T06:17:57;93692.84;;;7.57;74.80
8294;BME280;4185;41.506;24.938;2022-10-04T06:23:32;93698.94;;;7.67;73.65
8294;BME280;4185;41.506;24.938;2022-10-04T06:26:05;93710.16;;;7.74;73.43
8294;BME280;4185;41.506;24.938;2022-10-04T06:28:37;93708.97;;;7.90;74.16
8294;BME280;4185;41.506;24.938;2022-10-04T06:31:22;93707.97;;;8.02;74.69
8294;BME280;4185;41.506;24.938;2022-10-04T06:34:10;93708.47;;;8.15;73.98
8294;BME280;4185;41.506;24.938;2022-10-04T06:37:00;93704.78;;;8.27;73.65
8294;BME280;4185;41.506;24.938;2022-10-04T06:39:51;93703.75;;;8.39;73.08
8294;BME280;4185;41.506;24.938;2022-10-04T06:42:50;93705.53;;;8.56;73.18
8294;BME280;4185;41.506;24.938;2022-10-04T06:45:38;93706.44;;;8.68;72.37
8294;BME280;4185;41.506;24.938;2022-10-04T06:48:29;93698.53;;;8.79;72.76
8294;BME280;4185;41.506;24.938;2022-10-04T06:51:07;93704.38;;;8.92;72.46
8294;BME280;4185;41.506;24.938;2022-10-04T06:53:46;93703.34;;;9.04;73.07
8294;BME280;4185;41.506;24.938;2022-10-04T06:59:42;93709.88;;;9.32;71.31
8294;BME280;4185;41.506;24.938;2022-10-04T07:02:18;93712.63;;;9.52;70.96
8294;BME280;4185;41.506;24.938;2022-10-04T07:04:50;93708.44;;;9.71;70.82
8294;BME280;4185;41.506;24.938;2022-10-04T07:07:27;93705.19;;;9.88;70.43
8294;BME280;4185;41.506;24.938;2022-10-04T07:10:12;93705.88;;;10.03;68.98
8294;BME280;4185;41.506;24.938;2022-10-04T07:12:44;93716.16;;;10.19;69.19
8294;BME280;4185;41.506;24.938;2022-10-04T07:15:18;93702.94;;;10.26;68.13
8294;BME280;4185;41.506;24.938;2022-10-04T07:17:47;93710.75;;;10.44;65.72
8294;BME280;4185;41.506;24.938;2022-10-04T07:20:20;93711.88;;;10.58;64.71
8294;BME280;4185;41.506;24.938;2022-10-04T07:22:52;93710.34;;;10.82;63.53
8294;BME280;4185;41.506;24.938;2022-10-04T07:25:23;93713.53;;;11.06;61.62
8294;BME280;4185;41.506;24.938;2022-10-04T07:27:57;93718.09;;;11.21;60.39
8294;BME280;4185;41.506;24.938;2022-10-04T07:30:50;93707.84;;;11.47;55.98
8294;BME280;4185;41.506;24.938;2022-10-04T07:33:20;93714.91;;;11.64;55.19
8294;BME280;4185;41.506;24.938;2022-10-04T07:35:52;93720.22;;;11.84;52.56
8294;BME280;4185;41.506;24.938;2022-10-04T07:38:25;93718.53;;;11.98;51.99
8294;BME280;4185;41.506;24.938;2022-10-04T07:41:02;93724.72;;;11.93;52.63
8294;BME280;4185;41.506;24.938;2022-10-04T07:43:33;93725.16;;;11.86;54.97
8294;BME280;4185;41.506;24.938;2022-10-04T07:46:11;93725.16;;;11.80;53.67
8294;BME280;4185;41.506;24.938;2022-10-04T07:48:40;93730.16;;;11.93;51.46
8294;BME280;4185;41.506;24.938;2022-10-04T07:51:18;93736.66;;;12.06;51.79
8294;BME280;4185;41.506;24.938;2022-10-04T07:53:52;93728.50;;;12.12;51.43
8294;BME280;4185;41.506;24.938;2022-10-04T07:56:26;93735.69;;;12.15;52.18
8294;BME280;4185;41.506;24.938;2022-10-04T07:59:05;93728.28;;;12.15;52.87
8294;BME280;4185;41.506;24.938;2022-10-04T08:01:42;93739.16;;;12.15;53.00
8294;BME280;4185;41.506;24.938;2022-10-04T08:04:26;93726.03;;;12.14;51.80
8294;BME280;4185;41.506;24.938;2022-10-04T08:06:59;93730.28;;;12.20;50.83
8294;BME280;4185;41.506;24.938;2022-10-04T08:09:42;93735.47;;;12.24;50.40
8294;BME280;4185;41.506;24.938;2022-10-04T08:12:18;93731.53;;;12.31;50.19
8294;BME280;4185;41.506;24.938;2022-10-04T08:14:55;93732.78;;;12.35;50.26
8294;BME280;4185;41.506;24.938;2022-10-04T08:17:37;93733.56;;;12.41;49.83
8294;BME280;4185;41.506;24.938;2022-10-04T08:20:21;93732.81;;;12.52;49.35
8294;BME280;4185;41.506;24.938;2022-10-04T08:22:58;93730.63;;;12.67;48.87
8294;BME280;4185;41.506;24.938;2022-10-04T08:25:32;93739.41;;;13.04;48.58
8294;BME280;4185;41.506;24.938;2022-10-04T08:28:12;93741.38;;;13.42;49.25
8294;BME280;4185;41.506;24.938;2022-10-04T08:31:12;93744.09;;;13.48;47.24
8294;BME280;4185;41.506;24.938;2022-10-04T08:34:00;93750.53;;;13.39;46.07
8294;BME280;4185;41.506;24.938;2022-10-04T08:36:48;93750.28;;;13.37;46.65
8294;BME280;4185;41.506;24.938;2022-10-04T08:39:28;93752.78;;;13.35;46.63
8294;BME280;4185;41.506;24.938;2022-10-04T08:42:17;93746.09;;;13.36;47.22
8294;BME280;4185;41.506;24.938;2022-10-04T08:57:13;93751.78;;;13.49;46.81
8294;BME280;4185;41.506;24.938;2022-10-04T09:00:13;93762.66;;;13.60;46.39
8294;BME280;4185;41.506;24.938;2022-10-04T09:06:14;93768.13;;;13.71;45.95
8294;BME280;4185;41.506;24.938;2022-10-04T09:09:11;93773.34;;;13.69;45.68
8294;BME280;4185;41.506;24.938;2022-10-04T09:15:10;93782.78;;;13.63;45.51
8294;BME280;4185;41.506;24.938;2022-10-04T09:17:52;93775.06;;;13.67;45.08
8294;BME280;4185;41.506;24.938;2022-10-04T09:20:22;93781.78;;;13.71;45.64
8294;BME280;4185;41.506;24.938;2022-10-04T09:23:05;93775.81;;;13.73;44.56
8294;BME280;4185;41.506;24.938;2022-10-04T09:25:48;93786.69;;;13.95;45.16
8294;BME280;4185;41.506;24.938;2022-10-04T09:31:47;93774.09;;;14.54;43.28
8294;BME280;4185;41.506;24.938;2022-10-04T09:34:32;93770.91;;;14.50;44.72
8294;BME280;4185;41.506;24.938;2022-10-04T09:37:38;93776.88;;;14.49;42.96
8294;BME280;4185;41.506;24.938;2022-10-04T09:40:37;93778.56;;;14.57;43.68
8294;BME280;4185;41.506;24.938;2022-10-04T09:43:28;93789.00;;;14.59;41.67
8294;BME280;4185;41.506;24.938;2022-10-04T09:46:12;93784.06;;;14.52;40.69
8294;BME280;4185;41.506;24.938;2022-10-04T09:48:50;93782.09;;;14.41;40.48
8294;BME280;4185;41.506;24.938;2022-10-04T09:54:18;93785.84;;;14.44;41.51
8294;BME280;4185;41.506;24.938;2022-10-04T09:57:00;93775.16;;;14.46;41.34
8294;BME280;4185;41.506;24.938;2022-10-04T09:59:55;93783.31;;;14.51;40.82
8294;BME280;4185;41.506;24.938;2022-10-04T10:05:41;93783.69;;;14.78;42.44
8294;BME280;4185;41.506;24.938;2022-10-04T10:08:16;93791.13;;;14.83;41.97
8294;BME280;4185;41.506;24.938;2022-10-04T10:10:55;93787.38;;;14.86;42.35
8294;BME280;4185;41.506;24.938;2022-10-04T10:16:58;93794.59;;;14.83;43.64
8294;BME280;4185;41.506;24.938;2022-10-04T10:19:40;93795.31;;;14.84;43.30
8294;BME280;4185;41.506;24.938;2022-10-04T10:22:28;93797.03;;;14.87;43.98
8294;BME280;4185;41.506;24.938;2022-10-04T10:25:10;93801.03;;;14.86;42.42
8294;BME280;4185;41.506;24.938;2022-10-04T10:27:50;93788.63;;;14.85;43.01
8294;BME280;4185;41.506;24.938;2022-10-04T10:30:24;93788.34;;;14.88;42.14
8294;BME280;4185;41.506;24.938;2022-10-04T10:33:20;93787.56;;;15.34;40.87
8294;BME280;4185;41.506;24.938;2022-10-04T10:36:21;93794.75;;;15.72;42.46
8294;BME280;4185;41.506;24.938;2022-10-04T10:38:59;93782.56;;;16.21;41.11
8294;BME280;4185;41.506;24.938;2022-10-04T10:41:53;93785.09;;;16.62;40.58
8294;BME280;4185;41.506;24.938;2022-10-04T10:44:52;93786.81;;;16.65;38.22
8294;BME280;4185;41.506;24.938;2022-10-04T10:47:29;93789.03;;;16.66;37.88
8294;BME280;4185;41.506;24.938;2022-10-04T10:50:15;93775.38;;;16.79;38.00
8294;BME280;4185;41.506;24.938;2022-10-04T10:53:08;93767.53;;;16.89;37.62
8294;BME280;4185;41.506;24.938;2022-10-04T10:56:15;93775.53;;;17.24;38.61
8294;BME280;4185;41.506;24.938;2022-10-04T10:59:22;93773.84;;;17.53;37.72
8294;BME280;4185;41.506;24.938;2022-10-04T11:02:27;93763.41;;;17.51;36.83
8294;BME280;4185;41.506;24.938;2022-10-04T11:05:27;93774.66;;;17.79;38.50
8294;BME280;4185;41.506;24.938;2022-10-04T11:08:02;93770.16;;;17.95;35.56
8294;BME280;4185;41.506;24.938;2022-10-04T11:17:07;93753.41;;;17.67;35.40
8294;BME280;4185;41.506;24.938;2022-10-04T11:20:29;93767.63;;;17.97;34.55
8294;BME280;4185;41.506;24.938;2022-10-04T11:29:09;93772.50;;;17.41;37.97
8294;BME280;4185;41.506;24.938;2022-10-04T11:32:25;93784.72;;;17.27;36.85
8294;BME280;4185;41.506;24.938;2022-10-04T11:38:09;93788.50;;;17.24;36.35
8294;BME280;4185;41.506;24.938;2022-10-04T11:40:52;93786.06;;;17.20;36.24
8294;BME280;4185;41.506;24.938;2022-10-04T11:43:44;93791.72;;;17.09;35.00
8294;BME280;4185;41.506;24.938;2022-10-04T11:46:31;93782.00;;;17.08;35.28
8294;BME280;4185;41.506;24.938;2022-10-04T11:49:17;93788.91;;;16.96;34.97
8294;BME280;4185;41.506;24.938;2022-10-04T11:52:02;93786.44;;;16.92;35.21
8294;BME280;4185;41.506;24.938;2022-10-04T11:57:50;93780.66;;;17.65;33.73
8294;BME280;4185;41.506;24.938;2022-10-04T12:00:21;93779.06;;;17.38;34.67
8294;BME280;4185;41.506;24.938;2022-10-04T12:03:20;93786.19;;;17.28;36.04
8294;BME280;4185;41.506;24.938;2022-10-04T12:06:13;93790.06;;;17.19;35.49
8294;BME280;4185;41.506;24.938;2022-10-04T12:08:58;93796.31;;;17.20;36.75
8294;BME280;4185;41.506;24.938;2022-10-04T12:15:11;93792.78;;;17.56;34.81
8294;BME280;4185;41.506;24.938;2022-10-04T12:21:29;93800.41;;;18.08;33.44
8294;BME280;4185;41.506;24.938;2022-10-04T12:24:13;93787.66;;;18.63;32.92
8294;BME280;4185;41.506;24.938;2022-10-04T12:26:57;93784.09;;;19.01;33.49
8294;BME280;4185;41.506;24.938;2022-10-04T12:32:38;93789.25;;;19.93;33.29
8294;BME280;4185;41.506;24.938;2022-10-04T12:35:19;93782.97;;;20.33;31.16
8294;BME280;4185;41.506;24.938;2022-10-04T12:38:07;93788.47;;;20.26;31.74
8294;BME280;4185;41.506;24.938;2022-10-04T12:40:42;93778.66;;;20.81;31.63
8294;BME280;4185;41.506;24.938;2022-10-04T12:43:18;93783.84;;;20.92;29.85
8294;BME280;4185;41.506;24.938;2022-10-04T12:45:55;93787.31;;;19.60;29.49
8294;BME280;4185;41.506;24.938;2022-10-04T12:48:35;93794.09;;;18.78;30.62
8294;BME280;4185;41.506;24.938;2022-10-04T12:51:25;93797.38;;;18.24;31.94
8294;BME280;4185;41.506;24.938;2022-10-04T12:53:57;93803.31;;;17.84;32.73
8294;BME280;4185;41.506;24.938;2022-10-04T12:56:36;93797.69;;;17.76;33.76
8294;BME280;4185;41.506;24.938;2022-10-04T12:59:18;93805.38;;;17.65;33.96
8294;BME280;4185;41.506;24.938;2022-10-04T13:01:55;93803.53;;;17.54;34.77
8294;BME280;4185;41.506;24.938;2022-10-04T13:04:33;93806.38;;;17.49;34.50
8294;BME280;4185;41.506;24.938;2022-10-04T13:07:20;93812.31;;;17.53;35.41
8294;BME280;4185;41.506;24.938;2022-10-04T13:09:58;93809.03;;;17.54;35.44
8294;BME280;4185;41.506;24.938;2022-10-04T13:12:34;93809.78;;;17.55;35.36
8294;BME280;4185;41.506;24.938;2022-10-04T13:15:19;93816.31;;;17.52;35.45
8294;BME280;4185;41.506;24.938;2022-10-04T13:17:54;93813.88;;;17.30;35.83
8294;BME280;4185;41.506;24.938;2022-10-04T13:20:46;93814.84;;;17.14;36.58
8294;BME280;4185;41.506;24.938;2022-10-04T13:23:26;93818.09;;;17.31;35.99
8294;BME280;4185;41.506;24.938;2022-10-04T13:26:11;93817.59;;;17.82;35.30
8294;BME280;4185;41.506;24.938;2022-10-04T13:28:48;93813.25;;;18.84;34.98
8294;BME280;4185;41.506;24.938;2022-10-04T13:31:22;93808.56;;;19.52;33.06
8294;BME280;4185;41.506;24.938;2022-10-04T13:33:59;93813.81;;;19.63;32.79
8294;BME280;4185;41.506;24.938;2022-10-04T13:36:46;93803.91;;;19.88;32.78
8294;BME280;4185;41.506;24.938;2022-10-04T13:39:35;93807.97;;;20.07;32.42
8294;BME280;4185;41.506;24.938;2022-10-04T13:42:19;93804.25;;;20.25;31.93
8294;BME280;4185;41.506;24.938;2022-10-04T13:45:07;93807.25;;;20.14;31.77
8294;BME280;4185;41.506;24.938;2022-10-04T13:47:55;93814.38;;;19.14;32.32
8294;BME280;4185;41.506;24.938;2022-10-04T13:50:32;93808.91;;;18.62;32.82
8294;BME280;4185;41.506;24.938;2022-10-04T13:53:14;93816.06;;;18.13;33.75
8294;BME280;4185;41.506;24.938;2022-10-04T13:56:14;93827.28;;;17.70;34.21
8294;BME280;4185;41.506;24.938;2022-10-04T13:59:03;93825.66;;;17.62;34.68
8294;BME280;4185;41.506;24.938;2022-10-04T14:01:51;93836.19;;;17.58;35.06
8294;BME280;4185;41.506;24.938;2022-10-04T14:04:48;93824.28;;;17.55;35.29
8294;BME280;4185;41.506;24.938;2022-10-04T14:07:50;93831.88;;;17.44;36.41
8294;BME280;4185;41.506;24.938;2022-10-04T14:10:45;93836.78;;;17.32;35.99
8294;BME280;4185;41.506;24.938;2022-10-04T14:16:24;93835.91;;;17.43;37.04
8294;BME280;4185;41.506;24.938;2022-10-04T14:19:21;93842.28;;;17.51;37.24
8294;BME280;4185;41.506;24.938;2022-10-04T14:22:26;93844.38;;;17.63;36.72
8294;BME280;4185;41.506;24.938;2022-10-04T14:25:29;93851.00;;;17.86;36.93
8294;BME280;4185;41.506;24.938;2022-10-04T14:28:20;93845.06;;;22.20;30.32
8294;BME280;4185;41.506;24.938;2022-10-04T14:31:11;93852.31;;;23.23;28.67
8294;BME280;4185;41.506;24.938;2022-10-04T14:34:11;93849.66;;;21.44;30.03
8294;BME280;4185;41.506;24.938;2022-10-04T14:37:02;93846.56;;;19.87;32.47
8294;BME280;4185;41.506;24.938;2022-10-04T14:39:48;93850.56;;;19.18;33.20
8294;BME280;4185;41.506;24.938;2022-10-04T14:42:53;93856.56;;;18.70;34.12
8294;BME280;4185;41.506;24.938;2022-10-04T14:45:35;93857.75;;;18.30;34.61
8294;BME280;4185;41.506;24.938;2022-10-04T14:51:34;93861.75;;;17.84;36.02
8294;BME280;4185;41.506;24.938;2022-10-04T14:54:06;93855.16;;;17.74;36.46
8294;BME280;4185;41.506;24.938;2022-10-04T14:56:41;93859.97;;;17.55;37.17
8294;BME280;4185;41.506;24.938;2022-10-04T14:59:31;93861.59;;;17.45;38.39
8294;BME280;4185;41.506;24.938;2022-10-04T15:02:39;93863.34;;;17.43;37.48
8294;BME280;4185;41.506;24.938;2022-10-04T15:08:40;93867.44;;;17.36;37.77
8294;BME280;4185;41.506;24.938;2022-10-04T15:11:16;93875.22;;;17.32;38.34
8294;BME280;4185;41.506;24.938;2022-10-04T15:13:51;93880.06;;;17.26;37.63
8294;BME280;4185;41.506;24.938;2022-10-04T15:16:32;93884.59;;;17.24;37.63
8294;BME280;4185;41.506;24.938;2022-10-04T15:19:06;93886.66;;;17.18;37.55
8294;BME280;4185;41.506;24.938;2022-10-04T15:21:41;93896.75;;;17.10;38.06
8294;BME280;4185;41.506;24.938;2022-10-04T15:24:22;93886.13;;;17.00;38.47
8294;BME280;4185;41.506;24.938;2022-10-04T15:29:42;93895.66;;;16.75;35.69
8294;BME280;4185;41.506;24.938;2022-10-04T15:32:25;93894.28;;;16.63;36.12
8294;BME280;4185;41.506;24.938;2022-10-04T15:35:01;93892.13;;;16.56;36.35
8294;BME280;4185;41.506;24.938;2022-10-04T15:37:37;93893.66;;;16.52;36.06
8294;BME280;4185;41.506;24.938;2022-10-04T15:40:17;93899.94;;;16.47;36.05
8294;BME280;4185;41.506;24.938;2022-10-04T15:42:59;93904.97;;;16.37;36.75